Главная страница
METAR-TAF:

METAR-TAF

Аэропорты :

Olean, Нью-Йорк, США

широта: 42-14-28N, долгота: 078-22-17W, высота над уровнем моря: 651 м

Текущие метеонаблюдения

Эта сводка был подготовлена 25 минут назад, в 02:35 UTC
Штиль
Температура 0°C
Влажность 100%
Давление 1007 hPa
Видимость: 16.1 км
Сплошная облачность на высоте 600 фута

METAR: KOLE 260235Z AUTO 00000KT 10SM OVC006 00/00 A2975 RMK AO2

Время: 22:00 (03:00 UTC)


TAF: отсутствует

Метеонаблюдения и прогнозы для более 4000 аэропортов (сводки METAR и TAF).

Имеющиеся станции представлены на карте желтыми и красными точками.

Чтобы увидеть название станции, наведите на нее мышь.

Затем щелкните, чтобы увидеть метеонаблюдения и метеопрогнозы.

Управление картой: чтобы увеличить масштаб, щелкните зеленые кнопки с черным крестиком; чтобы уменьшить масштаб, щелкните зеленую кнопку с тире; для просмотра соседних карт щелкайте зеленые стрелки.


METAR-TAF: